Nystroem — 3YQP — position and weather

sailwx.info

Track history (hours):
 
Tides and Currents Weather Stations Pressure Air Temp Water Temp Dewpoint Dewpoint Depression Visibility Wind Speed Wind Dir Waves Ship Positions

Nystroem

Last reported at 2018-Feb-23 23:00 UTC. Time now 2018-Feb-24 02:40 UTC.
Position N 65°48' E 012°20'.

Length 51 m; draft 6.4 m.

Type: Fishing. MMSI: 259713000.

Date/timePositionNaut miles runAvg speedWind from/ knotsBaromVisibWave heightAir tempDewpointWater temp
2018-Feb-23 23:00N 65°48' E 012°20'5 9.6
2018-Feb-23 22:30N 65°44' E 012°16'5 9.8
2018-Feb-23 21:59N 65°39' E 012°13'5 9.5
2018-Feb-23 21:30N 65°35' E 012°08'5 9.2
2018-Feb-23 20:59N 65°31' E 012°01'5 9.6
2018-Feb-23 20:30N 65°26' E 011°56'4 9.1
2018-Feb-23 20:00N 65°22' E 012°01'4 7.6
2018-Feb-23 19:30N 65°18' E 011°60'5 9.8
2018-Feb-23 19:00N 65°14' E 011°55'5 9.6
2018-Feb-23 18:30N 65°10' E 011°50'5 9.8
2018-Feb-23 18:00N 65°05' E 011°47'5 9.7
2018-Feb-23 17:30N 65°01' E 011°41'5 9.3
2018-Feb-23 17:00N 64°58' E 011°33'5 9.5
2018-Feb-23 16:30N 64°55' E 011°23'5 9.7
2018-Feb-23 16:00N 64°52' E 011°15'5 9.4
2018-Feb-23 15:30N 64°48' E 011°07'5 9.7
2018-Feb-23 15:00N 64°45' E 010°60'5 9.2
2018-Feb-23 14:30N 64°42' E 010°51'5 9.2
2018-Feb-23 14:00N 64°39' E 010°43'5 9.1
2018-Feb-23 13:30N 64°36' E 010°35'4 9.0
2018-Feb-23 13:00N 64°33' E 010°28'4 9.0
2018-Feb-23 12:30N 64°29' E 010°21'5 9.1
2018-Feb-23 12:00N 64°26' E 010°13'5 9.4
2018-Feb-23 11:30N 64°23' E 010°06'5 9.6
2018-Feb-23 11:00N 64°19' E 009°59'5 9.5
2018-Feb-23 10:30N 64°15' E 009°52'5 9.5
2018-Feb-23 10:00N 64°11' E 009°47'5 9.6
2018-Feb-23 09:29N 64°07' E 009°43'510.0
2018-Feb-23 09:00N 64°02' E 009°37'510.2
2018-Feb-23 08:30N 63°58' E 009°31'510.0
2018-Feb-23 07:59N 63°53' E 009°26'510.0
2018-Feb-23 07:30N 63°49' E 009°21'510.6
2018-Feb-23 07:00N 63°44' E 009°17'510.4
2018-Feb-23 06:30N 63°39' E 009°15'510.1
2018-Feb-23 06:00N 63°34' E 009°16'510.0
2018-Feb-23 05:30N 63°31' E 009°08'510.0
2018-Feb-23 05:00N 63°28' E 008°58'510.0
2018-Feb-23 04:30N 63°27' E 008°47'510.0
2018-Feb-23 04:00N 63°25' E 008°37'5 9.9
2018-Feb-23 03:30N 63°23' E 008°27'510.3
2018-Feb-23 03:00N 63°19' E 008°18'510.8
2018-Feb-23 02:30N 63°16' E 008°09'510.7
2018-Feb-23 02:00N 63°14' E 007°58'510.4
2018-Feb-23 01:30N 63°11' E 007°48'510.4
2018-Feb-23 01:00N 63°08' E 007°38'510.1
2018-Feb-23 00:30N 63°05' E 007°29'510.1
2018-Feb-23 00:00N 63°03' E 007°19'5 9.7
2018-Feb-22 23:30N 63°01' E 007°09'5 9.9
2018-Feb-22 23:00N 62°60' E 006°59'510.1
2018-Feb-22 22:30N 62°57' E 006°50'510.3
2018-Feb-22 22:00N 62°53' E 006°43'510.2
2018-Feb-22 21:30N 62°48' E 006°38'5 9.8
2018-Feb-22 21:00N 62°43' E 006°37'2 4.6
2018-Feb-22 20:30N 62°41' E 006°38'0 0.0
2018-Feb-22 20:00N 62°41' E 006°38'1 1.4
2018-Feb-22 19:30N 62°42' E 006°39'4 7.3
2018-Feb-22 19:00N 62°41' E 006°31'5 9.7
2018-Feb-22 18:30N 62°38' E 006°23'5 9.6
2018-Feb-22 18:00N 62°35' E 006°15'2 4.8
2018-Feb-22 17:30N 62°33' E 006°16'0 0.2
2018-Feb-22 17:00N 62°33' E 006°16'0 0.0
2018-Feb-22 16:30N 62°33' E 006°16'0 0.0
2018-Feb-22 16:00N 62°33' E 006°16'0 0.0
2018-Feb-22 15:30N 62°33' E 006°16'0 0.0
2018-Feb-22 15:00N 62°33' E 006°16'0 0.0
2018-Feb-22 14:30N 62°33' E 006°16'0 0.0
2018-Feb-22 14:00N 62°33' E 006°16'0 0.0
2018-Feb-22 13:30N 62°33' E 006°16'0 0.0
2018-Feb-22 13:00N 62°33' E 006°16'0 0.0
2018-Feb-22 12:30N 62°33' E 006°16'2 3.2
2018-Feb-22 12:00N 62°33' E 006°13'2 4.1
2018-Feb-22 11:30N 62°35' E 006°11'0 0.1
2018-Feb-22 11:00N 62°35' E 006°11'0 0.2
2018-Feb-22 10:30N 62°35' E 006°11'1 1.0
2018-Feb-22 10:00N 62°35' E 006°12'5 9.6
2018-Feb-22 09:29N 62°38' E 006°21'510.3
2018-Feb-22 09:00N 62°41' E 006°29'5 9.6
2018-Feb-22 08:31N 62°42' E 006°39'1 2.6
2018-Feb-22 08:00N 62°41' E 006°38'0 0.0
2018-Feb-22 07:30N 62°41' E 006°38'0 0.0
2018-Feb-22 07:00N 62°41' E 006°38'0 0.0
2018-Feb-22 06:30N 62°41' E 006°38'0 0.0
2018-Feb-22 05:59N 62°41' E 006°38'0 0.0
2018-Feb-22 05:30N 62°41' E 006°38'0 0.0
2018-Feb-22 05:00N 62°41' E 006°38'0 0.0
2018-Feb-22 04:30N 62°41' E 006°38'0 0.0
2018-Feb-22 04:00N 62°41' E 006°38'0 0.0
2018-Feb-22 03:30N 62°41' E 006°38'0 0.0
2018-Feb-22 02:59N 62°41' E 006°38'0 0.0
2018-Feb-22 02:29N 62°41' E 006°38'0 0.0
2018-Feb-22 02:00N 62°41' E 006°38'0 0.0
2018-Feb-22 01:29N 62°41' E 006°38'0 0.0
2018-Feb-22 01:00N 62°41' E 006°38'0 0.0
2018-Feb-22 00:30N 62°41' E 006°38'0 0.0
2018-Feb-22 00:00N 62°41' E 006°38'0 0.0
2018-Feb-21 23:30N 62°41' E 006°38'0 0.0
2018-Feb-21 23:00N 62°41' E 006°38'0 0.0
2018-Feb-21 22:29N 62°41' E 006°38'0 0.0
2018-Feb-21 22:00N 62°41' E 006°38'0 0.0
2018-Feb-21 21:30N 62°41' E 006°38'0 0.0
2018-Feb-21 21:00N 62°41' E 006°38'0 0.0
2018-Feb-21 20:29N 62°41' E 006°38'0 0.0
2018-Feb-21 20:00N 62°41' E 006°38'0 0.0
2018-Feb-21 19:29N 62°41' E 006°38'0 0.0
2018-Feb-21 18:59N 62°41' E 006°38'0 0.0
2018-Feb-21 18:30N 62°41' E 006°38'0 0.0
2018-Feb-21 18:00N 62°41' E 006°38'0 0.0
2018-Feb-21 17:30N 62°41' E 006°38'0 0.0
2018-Feb-21 17:00N 62°41' E 006°38'0 0.0
2018-Feb-21 16:30N 62°41' E 006°38'0 0.0
2018-Feb-21 16:00N 62°41' E 006°38'0 0.0
2018-Feb-21 15:30N 62°41' E 006°38'0 0.0
2018-Feb-21 15:00N 62°41' E 006°38'0 0.0
2018-Feb-21 14:29N 62°41' E 006°38'0 0.0
2018-Feb-21 14:00N 62°41' E 006°38'0 0.0
2018-Feb-21 13:30N 62°41' E 006°38'0 0.0
2018-Feb-21 13:00N 62°41' E 006°38'0 0.0
2018-Feb-21 12:30N 62°41' E 006°38'0 0.0
2018-Feb-21 12:00N 62°41' E 006°38'0 0.0
2018-Feb-21 11:30N 62°41' E 006°38'0 0.0
2018-Feb-21 10:59N 62°41' E 006°38'0 0.0
2018-Feb-21 10:30N 62°41' E 006°38'0 0.0
2018-Feb-21 10:00N 62°41' E 006°38'0 0.0
2018-Feb-21 09:30N 62°41' E 006°38'0 0.0
2018-Feb-21 08:59N 62°41' E 006°38'0 0.0
2018-Feb-21 08:30N 62°41' E 006°38'0 0.0
2018-Feb-21 08:00N 62°41' E 006°38'0 0.0
2018-Feb-21 07:30N 62°41' E 006°38'0 0.0
2018-Feb-21 07:00N 62°41' E 006°38'0 0.0
2018-Feb-21 06:30N 62°41' E 006°38'0 0.0
2018-Feb-21 06:00N 62°41' E 006°38'0 0.0
2018-Feb-21 05:29N 62°41' E 006°38'0 0.0
2018-Feb-21 05:00N 62°41' E 006°38'0 0.0
2018-Feb-21 04:29N 62°41' E 006°38'0 0.0
2018-Feb-21 04:00N 62°41' E 006°38'0 0.0
2018-Feb-21 03:30N 62°41' E 006°38'0 0.0
2018-Feb-21 03:00N 62°41' E 006°38'0 0.0
2018-Feb-21 02:30N 62°41' E 006°38'0 0.0
2018-Feb-21 01:59N 62°41' E 006°38'0 0.0
2018-Feb-21 01:30N 62°41' E 006°38'0 0.0
2018-Feb-21 01:00N 62°41' E 006°38'0 0.0
2018-Feb-21 00:29N 62°41' E 006°38'0 0.0
2018-Feb-20 23:58N 62°41' E 006°38'0 0.0
2018-Feb-20 23:30N 62°41' E 006°38'0 0.0
2018-Feb-20 23:00N 62°41' E 006°38'0 0.0
2018-Feb-20 22:29N 62°41' E 006°38'0 0.0
2018-Feb-20 22:00N 62°41' E 006°38'0 0.0
2018-Feb-20 21:30N 62°41' E 006°38'0 0.0
2018-Feb-20 21:00N 62°41' E 006°38'0 0.0
2018-Feb-20 20:30N 62°41' E 006°38'0 0.0
2018-Feb-20 20:00N 62°41' E 006°38'0 0.0
2018-Feb-20 19:29N 62°41' E 006°38'0 0.0
2018-Feb-20 19:00N 62°41' E 006°38'0 0.0
2018-Feb-20 18:30N 62°41' E 006°38'0 0.0
2018-Feb-20 17:59N 62°41' E 006°38'0 0.0
2018-Feb-20 17:29N 62°41' E 006°38'0 0.0
2018-Feb-20 17:00N 62°41' E 006°38'0 0.0
2018-Feb-20 16:30N 62°41' E 006°38'0 0.0
2018-Feb-20 15:59N 62°41' E 006°38'0 0.0
2018-Feb-20 15:30N 62°41' E 006°38'0 0.0
2018-Feb-20 14:59N 62°41' E 006°38'0 0.0
2018-Feb-20 14:30N 62°41' E 006°38'0 0.0
2018-Feb-20 14:00N 62°41' E 006°38'0 0.0
2018-Feb-20 13:30N 62°41' E 006°38'0 0.0
2018-Feb-20 12:59N 62°41' E 006°38'0 0.0
2018-Feb-20 12:30N 62°41' E 006°38'0 0.0
2018-Feb-20 12:00N 62°41' E 006°38'0 0.0
2018-Feb-20 11:30N 62°41' E 006°38'0 0.0
2018-Feb-20 11:00N 62°41' E 006°38'0 0.0
2018-Feb-20 10:30N 62°41' E 006°38'0 0.0
2018-Feb-20 10:00N 62°41' E 006°38'0 0.0
2018-Feb-20 09:30N 62°41' E 006°38'0 0.0
2018-Feb-20 09:00N 62°41' E 006°38'0 0.0
2018-Feb-20 08:30N 62°41' E 006°38'0 0.0
2018-Feb-20 08:00N 62°41' E 006°38'0 0.0
2018-Feb-20 07:30N 62°41' E 006°38'0 0.0
2018-Feb-20 07:00N 62°41' E 006°38'0 0.0
2018-Feb-20 06:29N 62°41' E 006°38'0 0.0
2018-Feb-20 06:00N 62°41' E 006°38'0 0.0
2018-Feb-20 05:30N 62°41' E 006°38'0 0.0
2018-Feb-20 05:00N 62°41' E 006°38'0 0.0
2018-Feb-20 04:29N 62°41' E 006°38'0 0.0
2018-Feb-20 03:59N 62°41' E 006°38'0 0.0
2018-Feb-20 03:30N 62°41' E 006°38'0 0.0
2018-Feb-20 02:59N 62°41' E 006°38'0 0.0
2018-Feb-20 02:30N 62°41' E 006°38'0 0.0
2018-Feb-20 02:00N 62°41' E 006°38'0 0.0
2018-Feb-20 01:30N 62°41' E 006°38'0 0.0
2018-Feb-20 01:00N 62°41' E 006°38'0 0.0
2018-Feb-20 00:30N 62°41' E 006°38'0 0.0
2018-Feb-20 00:00N 62°41' E 006°38'0 0.0
2018-Feb-19 23:30N 62°41' E 006°38'0 0.0
2018-Feb-19 23:00N 62°41' E 006°38'0 0.0
2018-Feb-19 22:29N 62°41' E 006°38'0 0.0
2018-Feb-19 22:00N 62°41' E 006°38'0 0.0
2018-Feb-19 21:29N 62°41' E 006°38'0 0.0
2018-Feb-19 21:00N 62°41' E 006°38'0 0.0
2018-Feb-19 20:30N 62°41' E 006°38'0 0.0
2018-Feb-19 20:00N 62°41' E 006°38'0 0.0
2018-Feb-19 19:29N 62°41' E 006°38'0 0.0
2018-Feb-19 19:00N 62°41' E 006°38'0 0.0
2018-Feb-19 18:30N 62°41' E 006°38'0 0.0
2018-Feb-19 18:00N 62°41' E 006°38'0 0.0
2018-Feb-19 17:30N 62°41' E 006°38'0 0.0
2018-Feb-19 17:00N 62°41' E 006°38'0 0.0
2018-Feb-19 16:30N 62°41' E 006°38'0 0.0
2018-Feb-19 16:00N 62°41' E 006°38'0 0.0
2018-Feb-19 15:30N 62°41' E 006°38'0 0.0
2018-Feb-19 15:00N 62°41' E 006°38'0 0.0
2018-Feb-19 14:29N 62°41' E 006°38'0 0.0
2018-Feb-19 14:00N 62°41' E 006°38'0 0.0
2018-Feb-19 13:29N 62°41' E 006°38'0 0.0
2018-Feb-19 13:00N 62°41' E 006°38'0 0.0
2018-Feb-19 12:30N 62°41' E 006°38'0 0.0
2018-Feb-19 12:00N 62°41' E 006°38'0 0.0
2018-Feb-19 11:30N 62°41' E 006°38'0 0.0
2018-Feb-19 11:00N 62°41' E 006°38'0 0.0
2018-Feb-19 10:30N 62°41' E 006°38'0 0.0
2018-Feb-19 10:00N 62°41' E 006°38'0 0.0
2018-Feb-19 09:30N 62°41' E 006°38'0 0.0
2018-Feb-19 09:00N 62°41' E 006°38'0 0.0
2018-Feb-19 08:30N 62°41' E 006°38'0 0.0
2018-Feb-19 08:00N 62°41' E 006°38'0 0.0
2018-Feb-19 07:29N 62°41' E 006°38'0 0.0
2018-Feb-19 07:00N 62°41' E 006°38'0 0.0
2018-Feb-19 06:30N 62°41' E 006°38'0 0.0
2018-Feb-19 06:00N 62°41' E 006°38'0 0.0
2018-Feb-19 05:30N 62°41' E 006°38'0 0.0
2018-Feb-19 05:00N 62°41' E 006°38'0 0.0
2018-Feb-19 04:30N 62°41' E 006°38'0 0.0
2018-Feb-19 04:00N 62°41' E 006°38'0 0.0
2018-Feb-19 03:29N 62°41' E 006°38'0 0.0
2018-Feb-19 03:00N 62°41' E 006°38'0 0.0
2018-Feb-19 02:30N 62°41' E 006°38'0 0.0
2018-Feb-19 02:00N 62°41' E 006°38'0 0.0
2018-Feb-19 01:30N 62°41' E 006°38'0 0.0
2018-Feb-19 00:59N 62°41' E 006°38'0 0.0
2018-Feb-19 00:30N 62°41' E 006°38'0 0.0
2018-Feb-19 00:00N 62°41' E 006°38'0 0.0
2018-Feb-18 23:30N 62°41' E 006°38'0 0.0
2018-Feb-18 23:00N 62°41' E 006°38'0 0.0
2018-Feb-18 22:30N 62°41' E 006°38'0 0.0
2018-Feb-18 22:00N 62°41' E 006°38'0 0.0
2018-Feb-18 21:30N 62°41' E 006°38'0 0.0
2018-Feb-18 21:00N 62°41' E 006°38'0 0.0
2018-Feb-18 20:29N 62°41' E 006°38'0 0.0
2018-Feb-18 20:00N 62°41' E 006°38'0 0.0
2018-Feb-18 19:28N 62°41' E 006°38'0 0.0
2018-Feb-18 19:00N 62°41' E 006°38'0 0.0
2018-Feb-18 18:30N 62°41' E 006°38'0 0.0
2018-Feb-18 18:00N 62°41' E 006°38'0 0.0
2018-Feb-18 17:30N 62°41' E 006°38'0 0.0
2018-Feb-18 17:00N 62°41' E 006°38'0 0.0
2018-Feb-18 16:29N 62°41' E 006°38'0 0.0
2018-Feb-18 15:59N 62°41' E 006°38'0 0.0
2018-Feb-18 15:30N 62°41' E 006°38'0 0.0
2018-Feb-18 15:00N 62°41' E 006°38'0 0.0
2018-Feb-18 14:29N 62°41' E 006°38'0 0.0
2018-Feb-18 14:00N 62°41' E 006°38'0 0.0
2018-Feb-18 13:30N 62°41' E 006°38'0 0.0
2018-Feb-18 12:59N 62°41' E 006°38'0 0.0
2018-Feb-18 12:29N 62°41' E 006°38'0 0.0
2018-Feb-18 12:00N 62°41' E 006°38'0 0.0
2018-Feb-18 11:30N 62°41' E 006°38'0 0.0
2018-Feb-18 11:00N 62°41' E 006°38'0 0.0
2018-Feb-18 10:29N 62°41' E 006°38'0 0.0
2018-Feb-18 10:00N 62°41' E 006°38'0 0.0
2018-Feb-18 09:30N 62°41' E 006°38'0 0.0
2018-Feb-18 09:00N 62°41' E 006°38'0 0.0
2018-Feb-18 08:30N 62°41' E 006°38'0 0.0
2018-Feb-18 08:00N 62°41' E 006°38'0 0.0
2018-Feb-18 07:30N 62°41' E 006°38'0 0.0
2018-Feb-18 07:00N 62°41' E 006°38'0 0.0
2018-Feb-18 06:30N 62°41' E 006°38'0 0.0
2018-Feb-18 06:00N 62°41' E 006°38'0 0.0
2018-Feb-18 05:30N 62°41' E 006°38'0 0.0
2018-Feb-18 05:00N 62°41' E 006°38'0 0.0
2018-Feb-18 04:30N 62°41' E 006°38'0 0.0
2018-Feb-18 04:00N 62°41' E 006°38'0 0.0
2018-Feb-18 03:30N 62°41' E 006°38'0 0.0
2018-Feb-18 03:00N 62°41' E 006°38'0 0.0
2018-Feb-18 02:30N 62°41' E 006°38'0 0.0
2018-Feb-18 02:00N 62°41' E 006°38'0 0.0
2018-Feb-18 01:30N 62°41' E 006°38'0 0.0
2018-Feb-18 00:59N 62°41' E 006°38'0 0.0
2018-Feb-18 00:30N 62°41' E 006°38'0 0.0
2018-Feb-17 23:59N 62°41' E 006°38'0 0.0
2018-Feb-17 23:30N 62°41' E 006°38'0 0.0
2018-Feb-17 23:00N 62°41' E 006°38'0 0.0
2018-Feb-17 22:30N 62°41' E 006°38'0 0.0
2018-Feb-17 22:00N 62°41' E 006°38'0 0.0
2018-Feb-17 21:30N 62°41' E 006°38'0 0.0
2018-Feb-17 21:00N 62°41' E 006°38'0 0.0
2018-Feb-17 20:30N 62°41' E 006°38'0 0.0
2018-Feb-17 20:00N 62°41' E 006°38'0 0.0
2018-Feb-17 19:30N 62°41' E 006°38'0 0.0
2018-Feb-17 19:00N 62°41' E 006°38'0 0.0
2018-Feb-17 18:29N 62°41' E 006°38'0 0.0
2018-Feb-17 18:00N 62°41' E 006°38'1 2.9
2018-Feb-17 17:30N 62°43' E 006°38'4 9.0
2018-Feb-17 17:00N 62°41' E 006°29'5 9.2
2018-Feb-17 16:30N 62°38' E 006°21'4 8.7
2018-Feb-17 16:00N 62°35' E 006°14'2 3.7
2018-Feb-17 15:30N 62°35' E 006°10'0 0.3
2018-Feb-17 15:00N 62°35' E 006°10'0 0.1
2018-Feb-17 14:30N 62°35' E 006°10'0 0.2
2018-Feb-17 14:01N 62°35' E 006°10'5 9.9
2018-Feb-17 13:30N 62°30' E 006°08'5 9.4
2018-Feb-17 13:00N 62°27' E 005°60'5 9.3
2018-Feb-17 12:30N 62°27' E 005°50'5 9.4
2018-Feb-17 11:59N 62°27' E 005°39'4 9.2
2018-Feb-17 11:30N 62°25' E 005°30'5 9.6
2018-Feb-17 10:59N 62°22' E 005°22'5 9.7
2018-Feb-17 10:30N 62°18' E 005°17'5 9.6
2018-Feb-17 09:59N 62°14' E 005°10'4 8.9
2018-Feb-17 09:30N 62°11' E 005°05'4 8.5
2018-Feb-17 09:00N 62°06' E 005°06'4 8.7
2018-Feb-17 08:30N 62°02' E 005°08'4 8.8
2018-Feb-17 08:00N 61°58' E 005°09'4 7.9
2018-Feb-17 07:30N 61°54' E 005°09'4 9.0
2018-Feb-17 07:00N 61°51' E 005°16'5 9.8
2018-Feb-17 06:30N 61°48' E 005°07'510.2
2018-Feb-17 06:00N 61°45' E 004°59'510.1
2018-Feb-17 05:30N 61°40' E 004°58'510.1
2018-Feb-17 05:00N 61°35' E 004°57'5 9.6
2018-Feb-17 04:30N 61°30' E 004°60'510.1
2018-Feb-17 04:00N 61°26' E 004°53'5 9.7
2018-Feb-17 03:30N 61°22' E 004°49'510.0
2018-Feb-17 03:00N 61°17' E 004°47'5 9.5
2018-Feb-17 02:30N 61°13' E 004°43'5 9.6
2018-Feb-17 02:00N 61°08' E 004°45'5 9.5
2018-Feb-17 01:30N 61°03' E 004°44'5 9.5
2018-Feb-17 01:00N 60°58' E 004°46'5 9.7
2018-Feb-17 00:30N 60°54' E 004°46'5 9.2
2018-Feb-17 00:00N 60°49' E 004°44'5 9.8
2018-Feb-16 23:30N 60°45' E 004°48'5 9.7
2018-Feb-16 23:00N 60°40' E 004°51'5 9.8
2018-Feb-16 22:30N 60°36' E 004°54'5 9.9
2018-Feb-16 22:00N 60°31' E 004°58'5 9.8
2018-Feb-16 21:30N 60°26' E 005°02'510.0
2018-Feb-16 21:00N 60°23' E 005°10'510.3
2018-Feb-16 20:30N 60°18' E 005°12'5 9.8
2018-Feb-16 20:00N 60°13' E 005°10'510.2
2018-Feb-16 19:30N 60°09' E 005°16'5 9.9
2018-Feb-16 19:00N 60°04' E 005°19'5 9.9
2018-Feb-16 18:30N 59°60' E 005°21'510.0
2018-Feb-16 18:00N 59°56' E 005°29'5 9.6
2018-Feb-16 17:30N 59°52' E 005°33'510.0
2018-Feb-16 17:00N 59°47' E 005°33'510.6
2018-Feb-16 16:30N 59°42' E 005°26'510.4
2018-Feb-16 16:00N 59°38' E 005°20'510.2
2018-Feb-16 15:30N 59°34' E 005°15'5 9.4
2018-Feb-16 15:00N 59°30' E 005°13'5 9.4
2018-Feb-16 14:30N 59°25' E 005°14'4 8.7
2018-Feb-16 14:00N 59°21' E 005°19'510.4
2018-Feb-16 13:30N 59°16' E 005°20'510.3
2018-Feb-16 12:59N 59°11' E 005°20'5 9.9
2018-Feb-16 12:30N 59°06' E 005°21'5 9.4
2018-Feb-16 12:00N 59°01' E 005°21'5 9.6
2018-Feb-16 11:30N 58°56' E 005°21'5 9.9
2018-Feb-16 11:00N 58°51' E 005°22'5 9.6
2018-Feb-16 10:30N 58°47' E 005°24'5 9.9
2018-Feb-16 10:00N 58°42' E 005°27'510.4
2018-Feb-16 09:30N 58°37' E 005°31'510.4
2018-Feb-16 09:00N 58°33' E 005°36'510.3
2018-Feb-16 08:30N 58°29' E 005°43'510.3
2018-Feb-16 08:00N 58°26' E 005°50'510.4
2018-Feb-16 07:30N 58°22' E 005°57'510.7
2018-Feb-16 07:00N 58°18' E 006°04'510.3
2018-Feb-16 06:30N 58°14' E 006°11'510.1
2018-Feb-16 06:00N 58°11' E 006°18'510.0
2018-Feb-16 05:30N 58°08' E 006°25'5 9.9
2018-Feb-16 05:00N 58°05' E 006°32'510.1
2018-Feb-16 04:30N 58°01' E 006°40'510.3
2018-Feb-16 04:00N 57°58' E 006°48'510.4
2018-Feb-16 03:30N 57°56' E 006°56'510.1
2018-Feb-16 03:00N 57°54' E 007°05'510.4
2018-Feb-16 02:30N 57°53' E 007°14'5 9.7
2018-Feb-16 02:00N 57°53' E 007°24'510.1
2018-Feb-16 01:30N 57°53' E 007°33'510.1
2018-Feb-16 00:59N 57°52' E 007°43'5 9.9
2018-Feb-16 00:30N 57°51' E 007°52'5 9.9
2018-Feb-15 23:59N 57°51' E 008°01'510.0
2018-Feb-15 23:30N 57°50' E 008°10'47 1.2
2018-Feb-14 07:29N 57°42' E 009°36'4110.1
2018-Feb-14 03:22N 57°50' E 008°20'4 9.5
2018-Feb-14 02:59N 57°51' E 008°14'5 9.7
2018-Feb-14 02:30N 57°52' E 008°05'5 9.3
2018-Feb-14 02:00N 57°53' E 007°57'5 9.2
2018-Feb-14 01:28N 57°54' E 007°48'4 8.7
2018-Feb-14 00:59N 57°55' E 007°40'4 8.9
2018-Feb-14 00:30N 57°57' E 007°32'5 9.5
2018-Feb-14 00:00N 57°57' E 007°23'510.0
2018-Feb-13 23:29N 57°58' E 007°14'  
Track history (hours):
 
Tides and Currents Weather Stations Pressure Air Temp Water Temp Dewpoint Dewpoint Depression Visibility Wind Speed Wind Dir Waves Ship Positions

Nystroem

Last reported at 2018-Feb-23 23:00 UTC. Time now 2018-Feb-24 02:40 UTC.
Position N 65°48' E 012°20'.

Length 51 m; draft 6.4 m.

Type: Fishing. MMSI: 259713000.

Date/timePositionNaut miles runAvg speedWind from/ knotsBaromVisibWave heightAir tempDewpointWater temp
2018-Feb-23 23:00N 65°48' E 012°20'5 9.6
2018-Feb-23 22:30N 65°44' E 012°16'5 9.8
2018-Feb-23 21:59N 65°39' E 012°13'5 9.5
2018-Feb-23 21:30N 65°35' E 012°08'5 9.2
2018-Feb-23 20:59N 65°31' E 012°01'5 9.6
2018-Feb-23 20:30N 65°26' E 011°56'4 9.1
2018-Feb-23 20:00N 65°22' E 012°01'4 7.6
2018-Feb-23 19:30N 65°18' E 011°60'5 9.8
2018-Feb-23 19:00N 65°14' E 011°55'5 9.6
2018-Feb-23 18:30N 65°10' E 011°50'5 9.8
2018-Feb-23 18:00N 65°05' E 011°47'5 9.7
2018-Feb-23 17:30N 65°01' E 011°41'5 9.3
2018-Feb-23 17:00N 64°58' E 011°33'5 9.5
2018-Feb-23 16:30N 64°55' E 011°23'5 9.7
2018-Feb-23 16:00N 64°52' E 011°15'5 9.4
2018-Feb-23 15:30N 64°48' E 011°07'5 9.7
2018-Feb-23 15:00N 64°45' E 010°60'5 9.2
2018-Feb-23 14:30N 64°42' E 010°51'5 9.2
2018-Feb-23 14:00N 64°39' E 010°43'5 9.1
2018-Feb-23 13:30N 64°36' E 010°35'4 9.0
2018-Feb-23 13:00N 64°33' E 010°28'4 9.0
2018-Feb-23 12:30N 64°29' E 010°21'5 9.1
2018-Feb-23 12:00N 64°26' E 010°13'5 9.4
2018-Feb-23 11:30N 64°23' E 010°06'5 9.6
2018-Feb-23 11:00N 64°19' E 009°59'5 9.5
2018-Feb-23 10:30N 64°15' E 009°52'5 9.5
2018-Feb-23 10:00N 64°11' E 009°47'5 9.6
2018-Feb-23 09:29N 64°07' E 009°43'510.0
2018-Feb-23 09:00N 64°02' E 009°37'510.2
2018-Feb-23 08:30N 63°58' E 009°31'510.0
2018-Feb-23 07:59N 63°53' E 009°26'510.0
2018-Feb-23 07:30N 63°49' E 009°21'510.6
2018-Feb-23 07:00N 63°44' E 009°17'510.4
2018-Feb-23 06:30N 63°39' E 009°15'510.1
2018-Feb-23 06:00N 63°34' E 009°16'510.0
2018-Feb-23 05:30N 63°31' E 009°08'510.0
2018-Feb-23 05:00N 63°28' E 008°58'510.0
2018-Feb-23 04:30N 63°27' E 008°47'510.0
2018-Feb-23 04:00N 63°25' E 008°37'5 9.9
2018-Feb-23 03:30N 63°23' E 008°27'510.3
2018-Feb-23 03:00N 63°19' E 008°18'510.8
2018-Feb-23 02:30N 63°16' E 008°09'510.7
2018-Feb-23 02:00N 63°14' E 007°58'510.4
2018-Feb-23 01:30N 63°11' E 007°48'510.4
2018-Feb-23 01:00N 63°08' E 007°38'510.1
2018-Feb-23 00:30N 63°05' E 007°29'510.1
2018-Feb-23 00:00N 63°03' E 007°19'5 9.7
2018-Feb-22 23:30N 63°01' E 007°09'5 9.9
2018-Feb-22 23:00N 62°60' E 006°59'510.1
2018-Feb-22 22:30N 62°57' E 006°50'510.3
2018-Feb-22 22:00N 62°53' E 006°43'510.2
2018-Feb-22 21:30N 62°48' E 006°38'5 9.8
2018-Feb-22 21:00N 62°43' E 006°37'2 4.6
2018-Feb-22 20:30N 62°41' E 006°38'0 0.0
2018-Feb-22 20:00N 62°41' E 006°38'1 1.4
2018-Feb-22 19:30N 62°42' E 006°39'4 7.3
2018-Feb-22 19:00N 62°41' E 006°31'5 9.7
2018-Feb-22 18:30N 62°38' E 006°23'5 9.6
2018-Feb-22 18:00N 62°35' E 006°15'2 4.8
2018-Feb-22 17:30N 62°33' E 006°16'0 0.2
2018-Feb-22 17:00N 62°33' E 006°16'0 0.0
2018-Feb-22 16:30N 62°33' E 006°16'0 0.0
2018-Feb-22 16:00N 62°33' E 006°16'0 0.0
2018-Feb-22 15:30N 62°33' E 006°16'0 0.0
2018-Feb-22 15:00N 62°33' E 006°16'0 0.0
2018-Feb-22 14:30N 62°33' E 006°16'0 0.0
2018-Feb-22 14:00N 62°33' E 006°16'0 0.0
2018-Feb-22 13:30N 62°33' E 006°16'0 0.0
2018-Feb-22 13:00N 62°33' E 006°16'0 0.0
2018-Feb-22 12:30N 62°33' E 006°16'2 3.2
2018-Feb-22 12:00N 62°33' E 006°13'2 4.1
2018-Feb-22 11:30N 62°35' E 006°11'0 0.1
2018-Feb-22 11:00N 62°35' E 006°11'0 0.2
2018-Feb-22 10:30N 62°35' E 006°11'1 1.0
2018-Feb-22 10:00N 62°35' E 006°12'5 9.6
2018-Feb-22 09:29N 62°38' E 006°21'510.3
2018-Feb-22 09:00N 62°41' E 006°29'5 9.6
2018-Feb-22 08:31N 62°42' E 006°39'1 2.6
2018-Feb-22 08:00N 62°41' E 006°38'0 0.0
2018-Feb-22 07:30N 62°41' E 006°38'0 0.0
2018-Feb-22 07:00N 62°41' E 006°38'0 0.0
2018-Feb-22 06:30N 62°41' E 006°38'0 0.0
2018-Feb-22 05:59N 62°41' E 006°38'0 0.0
2018-Feb-22 05:30N 62°41' E 006°38'0 0.0
2018-Feb-22 05:00N 62°41' E 006°38'0 0.0
2018-Feb-22 04:30N 62°41' E 006°38'0 0.0
2018-Feb-22 04:00N 62°41' E 006°38'0 0.0
2018-Feb-22 03:30N 62°41' E 006°38'0 0.0
2018-Feb-22 02:59N 62°41' E 006°38'0 0.0
2018-Feb-22 02:29N 62°41' E 006°38'0 0.0
2018-Feb-22 02:00N 62°41' E 006°38'0 0.0
2018-Feb-22 01:29N 62°41' E 006°38'0 0.0
2018-Feb-22 01:00N 62°41' E 006°38'0 0.0
2018-Feb-22 00:30N 62°41' E 006°38'0 0.0
2018-Feb-22 00:00N 62°41' E 006°38'0 0.0
2018-Feb-21 23:30N 62°41' E 006°38'0 0.0
2018-Feb-21 23:00N 62°41' E 006°38'0 0.0
2018-Feb-21 22:29N 62°41' E 006°38'0 0.0
2018-Feb-21 22:00N 62°41' E 006°38'0 0.0
2018-Feb-21 21:30N 62°41' E 006°38'0 0.0
2018-Feb-21 21:00N 62°41' E 006°38'0 0.0
2018-Feb-21 20:29N 62°41' E 006°38'0 0.0
2018-Feb-21 20:00N 62°41' E 006°38'0 0.0
2018-Feb-21 19:29N 62°41' E 006°38'0 0.0
2018-Feb-21 18:59N 62°41' E 006°38'0 0.0
2018-Feb-21 18:30N 62°41' E 006°38'0 0.0
2018-Feb-21 18:00N 62°41' E 006°38'0 0.0
2018-Feb-21 17:30N 62°41' E 006°38'0 0.0
2018-Feb-21 17:00N 62°41' E 006°38'0 0.0
2018-Feb-21 16:30N 62°41' E 006°38'0 0.0
2018-Feb-21 16:00N 62°41' E 006°38'0 0.0
2018-Feb-21 15:30N 62°41' E 006°38'0 0.0
2018-Feb-21 15:00N 62°41' E 006°38'0 0.0
2018-Feb-21 14:29N 62°41' E 006°38'0 0.0
2018-Feb-21 14:00N 62°41' E 006°38'0 0.0
2018-Feb-21 13:30N 62°41' E 006°38'0 0.0
2018-Feb-21 13:00N 62°41' E 006°38'0 0.0
2018-Feb-21 12:30N 62°41' E 006°38'0 0.0
2018-Feb-21 12:00N 62°41' E 006°38'0 0.0
2018-Feb-21 11:30N 62°41' E 006°38'0 0.0
2018-Feb-21 10:59N 62°41' E 006°38'0 0.0
2018-Feb-21 10:30N 62°41' E 006°38'0 0.0
2018-Feb-21 10:00N 62°41' E 006°38'0 0.0
2018-Feb-21 09:30N 62°41' E 006°38'0 0.0
2018-Feb-21 08:59N 62°41' E 006°38'0 0.0
2018-Feb-21 08:30N 62°41' E 006°38'0 0.0
2018-Feb-21 08:00N 62°41' E 006°38'0 0.0
2018-Feb-21 07:30N 62°41' E 006°38'0 0.0
2018-Feb-21 07:00N 62°41' E 006°38'0 0.0
2018-Feb-21 06:30N 62°41' E 006°38'0 0.0
2018-Feb-21 06:00N 62°41' E 006°38'0 0.0
2018-Feb-21 05:29N 62°41' E 006°38'0 0.0
2018-Feb-21 05:00N 62°41' E 006°38'0 0.0
2018-Feb-21 04:29N 62°41' E 006°38'0 0.0
2018-Feb-21 04:00N 62°41' E 006°38'0 0.0
2018-Feb-21 03:30N 62°41' E 006°38'0 0.0
2018-Feb-21 03:00N 62°41' E 006°38'0 0.0
2018-Feb-21 02:30N 62°41' E 006°38'0 0.0
2018-Feb-21 01:59N 62°41' E 006°38'0 0.0
2018-Feb-21 01:30N 62°41' E 006°38'0 0.0
2018-Feb-21 01:00N 62°41' E 006°38'0 0.0
2018-Feb-21 00:29N 62°41' E 006°38'0 0.0
2018-Feb-20 23:58N 62°41' E 006°38'0 0.0
2018-Feb-20 23:30N 62°41' E 006°38'0 0.0
2018-Feb-20 23:00N 62°41' E 006°38'0 0.0
2018-Feb-20 22:29N 62°41' E 006°38'0 0.0
2018-Feb-20 22:00N 62°41' E 006°38'0 0.0
2018-Feb-20 21:30N 62°41' E 006°38'0 0.0
2018-Feb-20 21:00N 62°41' E 006°38'0 0.0
2018-Feb-20 20:30N 62°41' E 006°38'0 0.0
2018-Feb-20 20:00N 62°41' E 006°38'0 0.0
2018-Feb-20 19:29N 62°41' E 006°38'0 0.0
2018-Feb-20 19:00N 62°41' E 006°38'0 0.0
2018-Feb-20 18:30N 62°41' E 006°38'0 0.0
2018-Feb-20 17:59N 62°41' E 006°38'0 0.0
2018-Feb-20 17:29N 62°41' E 006°38'0 0.0
2018-Feb-20 17:00N 62°41' E 006°38'0 0.0
2018-Feb-20 16:30N 62°41' E 006°38'0 0.0
2018-Feb-20 15:59N 62°41' E 006°38'0 0.0
2018-Feb-20 15:30N 62°41' E 006°38'0 0.0
2018-Feb-20 14:59N 62°41' E 006°38'0 0.0
2018-Feb-20 14:30N 62°41' E 006°38'0 0.0
2018-Feb-20 14:00N 62°41' E 006°38'0 0.0
2018-Feb-20 13:30N 62°41' E 006°38'0 0.0
2018-Feb-20 12:59N 62°41' E 006°38'0 0.0
2018-Feb-20 12:30N 62°41' E 006°38'0 0.0
2018-Feb-20 12:00N 62°41' E 006°38'0 0.0
2018-Feb-20 11:30N 62°41' E 006°38'0 0.0
2018-Feb-20 11:00N 62°41' E 006°38'0 0.0
2018-Feb-20 10:30N 62°41' E 006°38'0 0.0
2018-Feb-20 10:00N 62°41' E 006°38'0 0.0
2018-Feb-20 09:30N 62°41' E 006°38'0 0.0
2018-Feb-20 09:00N 62°41' E 006°38'0 0.0
2018-Feb-20 08:30N 62°41' E 006°38'0 0.0
2018-Feb-20 08:00N 62°41' E 006°38'0 0.0
2018-Feb-20 07:30N 62°41' E 006°38'0 0.0
2018-Feb-20 07:00N 62°41' E 006°38'0 0.0
2018-Feb-20 06:29N 62°41' E 006°38'0 0.0
2018-Feb-20 06:00N 62°41' E 006°38'0 0.0
2018-Feb-20 05:30N 62°41' E 006°38'0 0.0
2018-Feb-20 05:00N 62°41' E 006°38'0 0.0
2018-Feb-20 04:29N 62°41' E 006°38'0 0.0
2018-Feb-20 03:59N 62°41' E 006°38'0 0.0
2018-Feb-20 03:30N 62°41' E 006°38'0 0.0
2018-Feb-20 02:59N 62°41' E 006°38'0 0.0
2018-Feb-20 02:30N 62°41' E 006°38'0 0.0
2018-Feb-20 02:00N 62°41' E 006°38'0 0.0
2018-Feb-20 01:30N 62°41' E 006°38'0 0.0
2018-Feb-20 01:00N 62°41' E 006°38'0 0.0
2018-Feb-20 00:30N 62°41' E 006°38'0 0.0
2018-Feb-20 00:00N 62°41' E 006°38'0 0.0
2018-Feb-19 23:30N 62°41' E 006°38'0 0.0
2018-Feb-19 23:00N 62°41' E 006°38'0 0.0
2018-Feb-19 22:29N 62°41' E 006°38'0 0.0
2018-Feb-19 22:00N 62°41' E 006°38'0 0.0
2018-Feb-19 21:29N 62°41' E 006°38'0 0.0
2018-Feb-19 21:00N 62°41' E 006°38'0 0.0
2018-Feb-19 20:30N 62°41' E 006°38'0 0.0
2018-Feb-19 20:00N 62°41' E 006°38'0 0.0
2018-Feb-19 19:29N 62°41' E 006°38'0 0.0
2018-Feb-19 19:00N 62°41' E 006°38'0 0.0
2018-Feb-19 18:30N 62°41' E 006°38'0 0.0
2018-Feb-19 18:00N 62°41' E 006°38'0 0.0
2018-Feb-19 17:30N 62°41' E 006°38'0 0.0
2018-Feb-19 17:00N 62°41' E 006°38'0 0.0
2018-Feb-19 16:30N 62°41' E 006°38'0 0.0
2018-Feb-19 16:00N 62°41' E 006°38'0 0.0
2018-Feb-19 15:30N 62°41' E 006°38'0 0.0
2018-Feb-19 15:00N 62°41' E 006°38'0 0.0
2018-Feb-19 14:29N 62°41' E 006°38'0 0.0
2018-Feb-19 14:00N 62°41' E 006°38'0 0.0
2018-Feb-19 13:29N 62°41' E 006°38'0 0.0
2018-Feb-19 13:00N 62°41' E 006°38'0 0.0
2018-Feb-19 12:30N 62°41' E 006°38'0 0.0
2018-Feb-19 12:00N 62°41' E 006°38'0 0.0
2018-Feb-19 11:30N 62°41' E 006°38'0 0.0
2018-Feb-19 11:00N 62°41' E 006°38'0 0.0
2018-Feb-19 10:30N 62°41' E 006°38'0 0.0
2018-Feb-19 10:00N 62°41' E 006°38'0 0.0
2018-Feb-19 09:30N 62°41' E 006°38'0 0.0
2018-Feb-19 09:00N 62°41' E 006°38'0 0.0
2018-Feb-19 08:30N 62°41' E 006°38'0 0.0
2018-Feb-19 08:00N 62°41' E 006°38'0 0.0
2018-Feb-19 07:29N 62°41' E 006°38'0 0.0
2018-Feb-19 07:00N 62°41' E 006°38'0 0.0
2018-Feb-19 06:30N 62°41' E 006°38'0 0.0
2018-Feb-19 06:00N 62°41' E 006°38'0 0.0
2018-Feb-19 05:30N 62°41' E 006°38'0 0.0
2018-Feb-19 05:00N 62°41' E 006°38'0 0.0
2018-Feb-19 04:30N 62°41' E 006°38'0 0.0
2018-Feb-19 04:00N 62°41' E 006°38'0 0.0
2018-Feb-19 03:29N 62°41' E 006°38'0 0.0
2018-Feb-19 03:00N 62°41' E 006°38'0 0.0
2018-Feb-19 02:30N 62°41' E 006°38'0 0.0
2018-Feb-19 02:00N 62°41' E 006°38'0 0.0
2018-Feb-19 01:30N 62°41' E 006°38'0 0.0
2018-Feb-19 00:59N 62°41' E 006°38'0 0.0
2018-Feb-19 00:30N 62°41' E 006°38'0 0.0
2018-Feb-19 00:00N 62°41' E 006°38'0 0.0
2018-Feb-18 23:30N 62°41' E 006°38'0 0.0
2018-Feb-18 23:00N 62°41' E 006°38'0 0.0
2018-Feb-18 22:30N 62°41' E 006°38'0 0.0
2018-Feb-18 22:00N 62°41' E 006°38'0 0.0
2018-Feb-18 21:30N 62°41' E 006°38'0 0.0
2018-Feb-18 21:00N 62°41' E 006°38'0 0.0
2018-Feb-18 20:29N 62°41' E 006°38'0 0.0
2018-Feb-18 20:00N 62°41' E 006°38'0 0.0
2018-Feb-18 19:28N 62°41' E 006°38'0 0.0
2018-Feb-18 19:00N 62°41' E 006°38'0 0.0
2018-Feb-18 18:30N 62°41' E 006°38'0 0.0
2018-Feb-18 18:00N 62°41' E 006°38'0 0.0
2018-Feb-18 17:30N 62°41' E 006°38'0 0.0
2018-Feb-18 17:00N 62°41' E 006°38'0 0.0
2018-Feb-18 16:29N 62°41' E 006°38'0 0.0
2018-Feb-18 15:59N 62°41' E 006°38'0 0.0
2018-Feb-18 15:30N 62°41' E 006°38'0 0.0
2018-Feb-18 15:00N 62°41' E 006°38'0 0.0
2018-Feb-18 14:29N 62°41' E 006°38'0 0.0
2018-Feb-18 14:00N 62°41' E 006°38'0 0.0
2018-Feb-18 13:30N 62°41' E 006°38'0 0.0
2018-Feb-18 12:59N 62°41' E 006°38'0 0.0
2018-Feb-18 12:29N 62°41' E 006°38'0 0.0
2018-Feb-18 12:00N 62°41' E 006°38'0 0.0
2018-Feb-18 11:30N 62°41' E 006°38'0 0.0
2018-Feb-18 11:00N 62°41' E 006°38'0 0.0
2018-Feb-18 10:29N 62°41' E 006°38'0 0.0
2018-Feb-18 10:00N 62°41' E 006°38'0 0.0
2018-Feb-18 09:30N 62°41' E 006°38'0 0.0
2018-Feb-18 09:00N 62°41' E 006°38'0 0.0
2018-Feb-18 08:30N 62°41' E 006°38'0 0.0
2018-Feb-18 08:00N 62°41' E 006°38'0 0.0
2018-Feb-18 07:30N 62°41' E 006°38'0 0.0
2018-Feb-18 07:00N 62°41' E 006°38'0 0.0
2018-Feb-18 06:30N 62°41' E 006°38'0 0.0
2018-Feb-18 06:00N 62°41' E 006°38'0 0.0
2018-Feb-18 05:30N 62°41' E 006°38'0 0.0
2018-Feb-18 05:00N 62°41' E 006°38'0 0.0
2018-Feb-18 04:30N 62°41' E 006°38'0 0.0
2018-Feb-18 04:00N 62°41' E 006°38'0 0.0
2018-Feb-18 03:30N 62°41' E 006°38'0 0.0
2018-Feb-18 03:00N 62°41' E 006°38'0 0.0
2018-Feb-18 02:30N 62°41' E 006°38'0 0.0
2018-Feb-18 02:00N 62°41' E 006°38'0 0.0
2018-Feb-18 01:30N 62°41' E 006°38'0 0.0
2018-Feb-18 00:59N 62°41' E 006°38'0 0.0
2018-Feb-18 00:30N 62°41' E 006°38'0 0.0
2018-Feb-17 23:59N 62°41' E 006°38'0 0.0
2018-Feb-17 23:30N 62°41' E 006°38'0 0.0
2018-Feb-17 23:00N 62°41' E 006°38'0 0.0
2018-Feb-17 22:30N 62°41' E 006°38'0 0.0
2018-Feb-17 22:00N 62°41' E 006°38'0 0.0
2018-Feb-17 21:30N 62°41' E 006°38'0 0.0
2018-Feb-17 21:00N 62°41' E 006°38'0 0.0
2018-Feb-17 20:30N 62°41' E 006°38'0 0.0
2018-Feb-17 20:00N 62°41' E 006°38'0 0.0
2018-Feb-17 19:30N 62°41' E 006°38'0 0.0
2018-Feb-17 19:00N 62°41' E 006°38'0 0.0
2018-Feb-17 18:29N 62°41' E 006°38'0 0.0
2018-Feb-17 18:00N 62°41' E 006°38'1 2.9
2018-Feb-17 17:30N 62°43' E 006°38'4 9.0
2018-Feb-17 17:00N 62°41' E 006°29'5 9.2
2018-Feb-17 16:30N 62°38' E 006°21'4 8.7
2018-Feb-17 16:00N 62°35' E 006°14'2 3.7
2018-Feb-17 15:30N 62°35' E 006°10'0 0.3
2018-Feb-17 15:00N 62°35' E 006°10'0 0.1
2018-Feb-17 14:30N 62°35' E 006°10'0 0.2
2018-Feb-17 14:01N 62°35' E 006°10'5 9.9
2018-Feb-17 13:30N 62°30' E 006°08'5 9.4
2018-Feb-17 13:00N 62°27' E 005°60'5 9.3
2018-Feb-17 12:30N 62°27' E 005°50'5 9.4
2018-Feb-17 11:59N 62°27' E 005°39'4 9.2
2018-Feb-17 11:30N 62°25' E 005°30'5 9.6
2018-Feb-17 10:59N 62°22' E 005°22'5 9.7
2018-Feb-17 10:30N 62°18' E 005°17'5 9.6
2018-Feb-17 09:59N 62°14' E 005°10'4 8.9
2018-Feb-17 09:30N 62°11' E 005°05'4 8.5
2018-Feb-17 09:00N 62°06' E 005°06'4 8.7
2018-Feb-17 08:30N 62°02' E 005°08'4 8.8
2018-Feb-17 08:00N 61°58' E 005°09'4 7.9
2018-Feb-17 07:30N 61°54' E 005°09'4 9.0
2018-Feb-17 07:00N 61°51' E 005°16'5 9.8
2018-Feb-17 06:30N 61°48' E 005°07'510.2
2018-Feb-17 06:00N 61°45' E 004°59'510.1
2018-Feb-17 05:30N 61°40' E 004°58'510.1
2018-Feb-17 05:00N 61°35' E 004°57'5 9.6
2018-Feb-17 04:30N 61°30' E 004°60'510.1
2018-Feb-17 04:00N 61°26' E 004°53'5 9.7
2018-Feb-17 03:30N 61°22' E 004°49'510.0
2018-Feb-17 03:00N 61°17' E 004°47'5 9.5
2018-Feb-17 02:30N 61°13' E 004°43'5 9.6
2018-Feb-17 02:00N 61°08' E 004°45'5 9.5
2018-Feb-17 01:30N 61°03' E 004°44'5 9.5
2018-Feb-17 01:00N 60°58' E 004°46'5 9.7
2018-Feb-17 00:30N 60°54' E 004°46'5 9.2
2018-Feb-17 00:00N 60°49' E 004°44'5 9.8
2018-Feb-16 23:30N 60°45' E 004°48'5 9.7
2018-Feb-16 23:00N 60°40' E 004°51'5 9.8
2018-Feb-16 22:30N 60°36' E 004°54'5 9.9
2018-Feb-16 22:00N 60°31' E 004°58'5 9.8
2018-Feb-16 21:30N 60°26' E 005°02'510.0
2018-Feb-16 21:00N 60°23' E 005°10'510.3
2018-Feb-16 20:30N 60°18' E 005°12'5 9.8
2018-Feb-16 20:00N 60°13' E 005°10'510.2
2018-Feb-16 19:30N 60°09' E 005°16'5 9.9
2018-Feb-16 19:00N 60°04' E 005°19'5 9.9
2018-Feb-16 18:30N 59°60' E 005°21'510.0
2018-Feb-16 18:00N 59°56' E 005°29'5 9.6
2018-Feb-16 17:30N 59°52' E 005°33'510.0
2018-Feb-16 17:00N 59°47' E 005°33'510.6
2018-Feb-16 16:30N 59°42' E 005°26'510.4
2018-Feb-16 16:00N 59°38' E 005°20'510.2
2018-Feb-16 15:30N 59°34' E 005°15'5 9.4
2018-Feb-16 15:00N 59°30' E 005°13'5 9.4
2018-Feb-16 14:30N 59°25' E 005°14'4 8.7
2018-Feb-16 14:00N 59°21' E 005°19'510.4
2018-Feb-16 13:30N 59°16' E 005°20'510.3
2018-Feb-16 12:59N 59°11' E 005°20'5 9.9
2018-Feb-16 12:30N 59°06' E 005°21'5 9.4
2018-Feb-16 12:00N 59°01' E 005°21'5 9.6
2018-Feb-16 11:30N 58°56' E 005°21'5 9.9
2018-Feb-16 11:00N 58°51' E 005°22'5 9.6
2018-Feb-16 10:30N 58°47' E 005°24'5 9.9
2018-Feb-16 10:00N 58°42' E 005°27'510.4
2018-Feb-16 09:30N 58°37' E 005°31'510.4
2018-Feb-16 09:00N 58°33' E 005°36'510.3
2018-Feb-16 08:30N 58°29' E 005°43'510.3
2018-Feb-16 08:00N 58°26' E 005°50'510.4
2018-Feb-16 07:30N 58°22' E 005°57'510.7
2018-Feb-16 07:00N 58°18' E 006°04'510.3
2018-Feb-16 06:30N 58°14' E 006°11'510.1
2018-Feb-16 06:00N 58°11' E 006°18'510.0
2018-Feb-16 05:30N 58°08' E 006°25'5 9.9
2018-Feb-16 05:00N 58°05' E 006°32'510.1
2018-Feb-16 04:30N 58°01' E 006°40'510.3
2018-Feb-16 04:00N 57°58' E 006°48'510.4
2018-Feb-16 03:30N 57°56' E 006°56'510.1
2018-Feb-16 03:00N 57°54' E 007°05'510.4
2018-Feb-16 02:30N 57°53' E 007°14'5 9.7
2018-Feb-16 02:00N 57°53' E 007°24'510.1
2018-Feb-16 01:30N 57°53' E 007°33'510.1
2018-Feb-16 00:59N 57°52' E 007°43'5 9.9
2018-Feb-16 00:30N 57°51' E 007°52'5 9.9
2018-Feb-15 23:59N 57°51' E 008°01'510.0
2018-Feb-15 23:30N 57°50' E 008°10'47 1.2
2018-Feb-14 07:29N 57°42' E 009°36'4110.1
2018-Feb-14 03:22N 57°50' E 008°20'4 9.5
2018-Feb-14 02:59N 57°51' E 008°14'5 9.7
2018-Feb-14 02:30N 57°52' E 008°05'5 9.3
2018-Feb-14 02:00N 57°53' E 007°57'5 9.2
2018-Feb-14 01:28N 57°54' E 007°48'4 8.7
2018-Feb-14 00:59N 57°55' E 007°40'4 8.9
2018-Feb-14 00:30N 57°57' E 007°32'5 9.5
2018-Feb-14 00:00N 57°57' E 007°23'510.0
2018-Feb-13 23:29N 57°58' E 007°14'  

Dump ship's entire track history